Santa Rita de Caldas, Brazil
Current Conditions -  °F | °C
As of 7:00 PM on Monday 26 Jan 2015 (Local Time) from SBPC Reporting Station
Thunderstorm Thunderstorm  
Wind Chill: 66°   Ceiling: 10000
Heat Index: 66°   Visibility: 5mi
Dew Point: 66°   Wind: 1mph
Humidity: 100%   Direction: 10°N
Pressure: 30.12"   Gusts: NA
Location:  22.03°S, 46.34°W
Report Text: SBPC 262100Z 01001KT 8000 -TSRA SCT020CB BKN100 19/19 Q1020
Loading
Personal Weather Stations






























Interactive Weather Map New forecast layout! Learn more

10-Day Weather Forecast

Advertisements
Track Severe Weather on mobile